sensor_id;sensor_type;location;lat;lon;timestamp;pressure;altitude;pressure_sealevel;temperature
49154;BMP280;49455;52.252;9.124;2022-07-23T00:02:10;99818.63;;;14.08
49154;BMP280;49455;52.252;9.124;2022-07-23T00:07:10;99813.22;;;13.96
49154;BMP280;49455;52.252;9.124;2022-07-23T00:12:11;99822.63;;;13.90
49154;BMP280;49455;52.252;9.124;2022-07-23T00:17:11;99820.06;;;13.94
49154;BMP280;49455;52.252;9.124;2022-07-23T00:22:12;99814.78;;;13.87
49154;BMP280;49455;52.252;9.124;2022-07-23T00:27:12;99814.59;;;13.77
49154;BMP280;49455;52.252;9.124;2022-07-23T00:32:12;99813.72;;;13.76
49154;BMP280;49455;52.252;9.124;2022-07-23T00:37:13;99818.97;;;13.79
49154;BMP280;49455;52.252;9.124;2022-07-23T00:42:13;99802.19;;;13.60
49154;BMP280;49455;52.252;9.124;2022-07-23T00:47:14;99798.59;;;13.53
49154;BMP280;49455;52.252;9.124;2022-07-23T00:52:14;99802.06;;;13.54
49154;BMP280;49455;52.252;9.124;2022-07-23T00:57:15;99823.91;;;13.64
49154;BMP280;49455;52.252;9.124;2022-07-23T01:02:16;99827.63;;;13.80
49154;BMP280;49455;52.252;9.124;2022-07-23T01:07:17;99824.31;;;13.88
49154;BMP280;49455;52.252;9.124;2022-07-23T01:12:18;99794.88;;;13.89
49154;BMP280;49455;52.252;9.124;2022-07-23T01:17:19;99806.91;;;13.81
49154;BMP280;49455;52.252;9.124;2022-07-23T01:22:20;99809.63;;;13.91
49154;BMP280;49455;52.252;9.124;2022-07-23T01:27:20;99814.84;;;13.91
49154;BMP280;49455;52.252;9.124;2022-07-23T01:32:24;99807.09;;;13.94
49154;BMP280;49455;52.252;9.124;2022-07-23T01:37:25;99817.59;;;13.99
49154;BMP280;49455;52.252;9.124;2022-07-23T01:42:25;99829.03;;;14.10
49154;BMP280;49455;52.252;9.124;2022-07-23T01:47:26;99831.75;;;14.17
49154;BMP280;49455;52.252;9.124;2022-07-23T01:52:29;99816.13;;;14.16
49154;BMP280;49455;52.252;9.124;2022-07-23T01:57:29;99815.34;;;14.20
49154;BMP280;49455;52.252;9.124;2022-07-23T02:02:30;99827.53;;;14.26
49154;BMP280;49455;52.252;9.124;2022-07-23T02:07:30;99832.03;;;14.36
49154;BMP280;49455;52.252;9.124;2022-07-23T02:12:32;99827.63;;;14.32
49154;BMP280;49455;52.252;9.124;2022-07-23T02:17:33;99809.63;;;14.44
49154;BMP280;49455;52.252;9.124;2022-07-23T02:22:36;99795.78;;;14.47
49154;BMP280;49455;52.252;9.124;2022-07-23T02:27:36;99786.31;;;14.50
49154;BMP280;49455;52.252;9.124;2022-07-23T02:32:39;99767.94;;;14.38
49154;BMP280;49455;52.252;9.124;2022-07-23T05:16:25;99776.34;;;15.71
49154;BMP280;49455;52.252;9.124;2022-07-23T05:21:27;99770.22;;;15.61
49154;BMP280;49455;52.252;9.124;2022-07-23T05:26:28;99775.47;;;15.63
49154;BMP280;49455;52.252;9.124;2022-07-23T05:31:28;99780.72;;;15.70
49154;BMP280;49455;52.252;9.124;2022-07-23T05:36:31;99786.81;;;15.72
49154;BMP280;49455;52.252;9.124;2022-07-23T05:41:32;99781.66;;;15.76
49154;BMP280;49455;52.252;9.124;2022-07-23T05:46:33;99792.94;;;15.77
49154;BMP280;49455;52.252;9.124;2022-07-23T05:51:39;99806.06;;;15.89
49154;BMP280;49455;52.252;9.124;2022-07-23T05:56:39;99799.94;;;15.85
49154;BMP280;49455;52.252;9.124;2022-07-23T06:01:40;99799.16;;;15.94
49154;BMP280;49455;52.252;9.124;2022-07-23T06:06:43;99791.44;;;16.07
49154;BMP280;49455;52.252;9.124;2022-07-23T06:11:45;99794.94;;;16.12
49154;BMP280;49455;52.252;9.124;2022-07-23T06:16:46;99803.72;;;16.20
49154;BMP280;49455;52.252;9.124;2022-07-23T06:21:46;99801.22;;;16.33
49154;BMP280;49455;52.252;9.124;2022-07-23T06:26:47;99806.56;;;16.58
49154;BMP280;49455;52.252;9.124;2022-07-23T06:31:48;99796.13;;;16.63
49154;BMP280;49455;52.252;9.124;2022-07-23T06:36:49;99804.00;;;16.70
49154;BMP280;49455;52.252;9.124;2022-07-23T06:41:49;99811.91;;;16.89
49154;BMP280;49455;52.252;9.124;2022-07-23T06:46:51;99810.25;;;17.06
49154;BMP280;49455;52.252;9.124;2022-07-23T06:51:52;99824.31;;;17.34
49154;BMP280;49455;52.252;9.124;2022-07-23T06:56:52;99834.72;;;17.33
49154;BMP280;49455;52.252;9.124;2022-07-23T07:01:53;99836.53;;;17.47
49154;BMP280;49455;52.252;9.124;2022-07-23T07:06:53;99849.59;;;17.47
49154;BMP280;49455;52.252;9.124;2022-07-23T07:11:54;99845.28;;;17.67
49154;BMP280;49455;52.252;9.124;2022-07-23T07:16:55;99847.00;;;17.71
49154;BMP280;49455;52.252;9.124;2022-07-23T07:21:55;99836.56;;;17.94
49154;BMP280;49455;52.252;9.124;2022-07-23T07:26:55;99840.97;;;18.22
49154;BMP280;49455;52.252;9.124;2022-07-23T07:31:56;99845.34;;;18.02
49154;BMP280;49455;52.252;9.124;2022-07-23T07:36:56;99855.78;;;18.16
49154;BMP280;49455;52.252;9.124;2022-07-23T07:41:57;99842.72;;;18.36
49154;BMP280;49455;52.252;9.124;2022-07-23T07:46:58;99848.81;;;18.34
49154;BMP280;49455;52.252;9.124;2022-07-23T07:51:58;99856.59;;;18.60
49154;BMP280;49455;52.252;9.124;2022-07-23T07:56:59;99860.97;;;18.54
49154;BMP280;49455;52.252;9.124;2022-07-23T08:01:59;99864.50;;;18.22
49154;BMP280;49455;52.252;9.124;2022-07-23T08:07:00;99868.00;;;18.45
49154;BMP280;49455;52.252;9.124;2022-07-23T08:12:00;99863.50;;;19.00
49154;BMP280;49455;52.252;9.124;2022-07-23T08:17:01;99862.56;;;19.18
49154;BMP280;49455;52.252;9.124;2022-07-23T08:22:01;99871.41;;;18.94
49154;BMP280;49455;52.252;9.124;2022-07-23T08:27:02;99874.09;;;18.48
49154;BMP280;49455;52.252;9.124;2022-07-23T08:32:02;99871.38;;;18.79
49154;BMP280;49455;52.252;9.124;2022-07-23T08:37:03;99880.97;;;19.09
49154;BMP280;49455;52.252;9.124;2022-07-23T08:42:03;99864.91;;;19.71
49154;BMP280;49455;52.252;9.124;2022-07-23T08:47:04;99880.78;;;19.48
49154;BMP280;49455;52.252;9.124;2022-07-23T08:52:05;99879.19;;;19.11
49154;BMP280;49455;52.252;9.124;2022-07-23T08:57:05;99886.22;;;19.07
49154;BMP280;49455;52.252;9.124;2022-07-23T09:02:06;99882.69;;;19.09
49154;BMP280;49455;52.252;9.124;2022-07-23T09:07:06;99884.28;;;19.45
49154;BMP280;49455;52.252;9.124;2022-07-23T09:12:08;99881.75;;;19.29
49154;BMP280;49455;52.252;9.124;2022-07-23T09:17:21;99868.25;;;19.97
49154;BMP280;49455;52.252;9.124;2022-07-23T09:22:24;99865.44;;;20.21
49154;BMP280;49455;52.252;9.124;2022-07-23T09:27:45;99867.47;;;19.86
49154;BMP280;49455;52.252;9.124;2022-07-23T09:33:09;99885.03;;;19.69
49154;BMP280;49455;52.252;9.124;2022-07-23T09:38:10;99868.03;;;20.22
49154;BMP280;49455;52.252;9.124;2022-07-23T09:43:25;99870.38;;;20.55
49154;BMP280;49455;52.252;9.124;2022-07-23T09:48:26;99863.28;;;20.67
49154;BMP280;49455;52.252;9.124;2022-07-23T09:53:26;99863.69;;;20.20
49154;BMP280;49455;52.252;9.124;2022-07-23T09:58:27;99871.94;;;20.76
49154;BMP280;49455;52.252;9.124;2022-07-23T10:03:28;99869.00;;;21.04
49154;BMP280;49455;52.252;9.124;2022-07-23T10:09:08;99877.47;;;20.45
49154;BMP280;49455;52.252;9.124;2022-07-23T10:14:31;99873.88;;;20.52
49154;BMP280;49455;52.252;9.124;2022-07-23T10:19:34;99882.31;;;20.87
49154;BMP280;49455;52.252;9.124;2022-07-23T10:30:03;99873.84;;;21.40
49154;BMP280;49455;52.252;9.124;2022-07-23T10:40:21;99871.09;;;21.49
49154;BMP280;49455;52.252;9.124;2022-07-23T10:45:30;99871.22;;;21.98
49154;BMP280;49455;52.252;9.124;2022-07-23T10:50:30;99881.47;;;21.57
49154;BMP280;49455;52.252;9.124;2022-07-23T11:00:33;99877.84;;;21.67
49154;BMP280;49455;52.252;9.124;2022-07-23T11:05:45;99860.91;;;21.84
49154;BMP280;49455;52.252;9.124;2022-07-23T11:10:54;99870.63;;;22.36
49154;BMP280;49455;52.252;9.124;2022-07-23T11:16:22;99859.28;;;22.34
49154;BMP280;49455;52.252;9.124;2022-07-23T11:26:54;99859.09;;;22.43
49154;BMP280;49455;52.252;9.124;2022-07-23T11:31:59;99853.34;;;22.70
49154;BMP280;49455;52.252;9.124;2022-07-23T11:37:01;99846.84;;;22.88
49154;BMP280;49455;52.252;9.124;2022-07-23T11:42:04;99853.09;;;22.84
49154;BMP280;49455;52.252;9.124;2022-07-23T11:47:07;99851.06;;;23.38
49154;BMP280;49455;52.252;9.124;2022-07-23T11:52:12;99854.34;;;23.09
49154;BMP280;49455;52.252;9.124;2022-07-23T11:57:13;99851.91;;;23.00
49154;BMP280;49455;52.252;9.124;2022-07-23T12:02:14;99857.03;;;22.11
49154;BMP280;49455;52.252;9.124;2022-07-23T12:07:25;99854.88;;;22.82
49154;BMP280;49455;52.252;9.124;2022-07-23T12:12:26;99848.53;;;23.74
49154;BMP280;49455;52.252;9.124;2022-07-23T12:17:29;99853.91;;;23.30
49154;BMP280;49455;52.252;9.124;2022-07-23T12:22:47;99846.97;;;22.35
49154;BMP280;49455;52.252;9.124;2022-07-23T12:28:27;99851.44;;;23.63
49154;BMP280;49455;52.252;9.124;2022-07-23T12:33:33;99847.22;;;23.14
49154;BMP280;49455;52.252;9.124;2022-07-23T12:38:47;99842.94;;;23.88
49154;BMP280;49455;52.252;9.124;2022-07-23T12:43:48;99843.13;;;24.16
49154;BMP280;49455;52.252;9.124;2022-07-23T12:53:53;99843.66;;;24.97
49154;BMP280;49455;52.252;9.124;2022-07-23T12:59:04;99838.38;;;25.26
49154;BMP280;49455;52.252;9.124;2022-07-23T13:04:15;99847.81;;;24.40
49154;BMP280;49455;52.252;9.124;2022-07-23T13:34:51;99846.84;;;25.08
49154;BMP280;49455;52.252;9.124;2022-07-23T13:39:51;99850.56;;;25.01
49154;BMP280;49455;52.252;9.124;2022-07-23T13:44:52;99845.75;;;24.85
49154;BMP280;49455;52.252;9.124;2022-07-23T13:49:52;99847.09;;;23.98
49154;BMP280;49455;52.252;9.124;2022-07-23T13:54:53;99838.56;;;24.90
49154;BMP280;49455;52.252;9.124;2022-07-23T13:59:53;99839.03;;;25.04
49154;BMP280;49455;52.252;9.124;2022-07-23T14:04:57;99847.25;;;25.53
49154;BMP280;49455;52.252;9.124;2022-07-23T14:09:57;99851.94;;;25.44
49154;BMP280;49455;52.252;9.124;2022-07-23T14:14:58;99849.06;;;25.82
49154;BMP280;49455;52.252;9.124;2022-07-23T14:19:58;99853.84;;;25.69
49154;BMP280;49455;52.252;9.124;2022-07-23T14:24:59;99848.47;;;26.26
49154;BMP280;49455;52.252;9.124;2022-07-23T14:30:00;99847.09;;;25.59
49154;BMP280;49455;52.252;9.124;2022-07-23T14:35:11;99856.44;;;25.71
49154;BMP280;49455;52.252;9.124;2022-07-23T14:40:11;99849.75;;;26.15
49154;BMP280;49455;52.252;9.124;2022-07-23T14:45:12;99851.41;;;25.90
49154;BMP280;49455;52.252;9.124;2022-07-23T14:50:15;99852.28;;;26.18
49154;BMP280;49455;52.252;9.124;2022-07-23T14:55:15;99861.22;;;25.30
49154;BMP280;49455;52.252;9.124;2022-07-23T15:00:16;99860.31;;;25.29
49154;BMP280;49455;52.252;9.124;2022-07-23T15:05:16;99861.06;;;25.91
49154;BMP280;49455;52.252;9.124;2022-07-23T15:10:17;99860.38;;;25.28
49154;BMP280;49455;52.252;9.124;2022-07-23T15:15:17;99846.22;;;25.59
49154;BMP280;49455;52.252;9.124;2022-07-23T15:20:18;99852.59;;;25.81
49154;BMP280;49455;52.252;9.124;2022-07-23T15:25:19;99856.59;;;25.93
49154;BMP280;49455;52.252;9.124;2022-07-23T15:30:19;99857.03;;;25.80
49154;BMP280;49455;52.252;9.124;2022-07-23T15:35:20;99848.56;;;25.11
49154;BMP280;49455;52.252;9.124;2022-07-23T15:40:20;99848.47;;;25.42
49154;BMP280;49455;52.252;9.124;2022-07-23T15:45:21;99843.44;;;25.63
49154;BMP280;49455;52.252;9.124;2022-07-23T15:50:21;99844.41;;;25.88
49154;BMP280;49455;52.252;9.124;2022-07-23T15:55:26;99848.75;;;25.90
49154;BMP280;49455;52.252;9.124;2022-07-23T16:00:27;99843.13;;;26.28
49154;BMP280;49455;52.252;9.124;2022-07-23T16:05:27;99844.22;;;25.94
49154;BMP280;49455;52.252;9.124;2022-07-23T16:10:28;99838.53;;;25.52
49154;BMP280;49455;52.252;9.124;2022-07-23T16:15:29;99848.97;;;24.96
49154;BMP280;49455;52.252;9.124;2022-07-23T16:20:29;99833.69;;;25.35
49154;BMP280;49455;52.252;9.124;2022-07-23T16:25:30;99831.72;;;24.14
49154;BMP280;49455;52.252;9.124;2022-07-23T16:30:30;99831.91;;;24.43
49154;BMP280;49455;52.252;9.124;2022-07-23T16:35:31;99831.38;;;24.62
49154;BMP280;49455;52.252;9.124;2022-07-23T16:40:32;99829.38;;;25.31
49154;BMP280;49455;52.252;9.124;2022-07-23T16:45:32;99829.47;;;25.00
49154;BMP280;49455;52.252;9.124;2022-07-23T16:50:33;99830.50;;;25.24
49154;BMP280;49455;52.252;9.124;2022-07-23T16:55:33;99830.00;;;24.48
49154;BMP280;49455;52.252;9.124;2022-07-23T17:00:34;99835.06;;;24.88
49154;BMP280;49455;52.252;9.124;2022-07-23T17:05:35;99837.78;;;24.54
49154;BMP280;49455;52.252;9.124;2022-07-23T17:10:35;99846.09;;;23.67
49154;BMP280;49455;52.252;9.124;2022-07-23T17:15:36;99845.72;;;23.82
49154;BMP280;49455;52.252;9.124;2022-07-23T17:20:36;99847.88;;;24.37
49154;BMP280;49455;52.252;9.124;2022-07-23T17:25:37;99848.41;;;24.16
49154;BMP280;49455;52.252;9.124;2022-07-23T17:30:37;99845.41;;;23.95
49154;BMP280;49455;52.252;9.124;2022-07-23T17:35:39;99853.50;;;23.88
49154;BMP280;49455;52.252;9.124;2022-07-23T17:40:39;99848.81;;;23.63
49154;BMP280;49455;52.252;9.124;2022-07-23T17:45:40;99852.28;;;23.65
49154;BMP280;49455;52.252;9.124;2022-07-23T17:50:41;99848.47;;;24.13
49154;BMP280;49455;52.252;9.124;2022-07-23T17:55:41;99869.47;;;23.41
49154;BMP280;49455;52.252;9.124;2022-07-23T18:00:42;99866.81;;;23.43
49154;BMP280;49455;52.252;9.124;2022-07-23T18:05:43;99858.69;;;23.53
49154;BMP280;49455;52.252;9.124;2022-07-23T18:10:43;99865.88;;;23.04
49154;BMP280;49455;52.252;9.124;2022-07-23T18:15:44;99862.78;;;22.33
49154;BMP280;49455;52.252;9.124;2022-07-23T18:20:44;99882.28;;;22.20
49154;BMP280;49455;52.252;9.124;2022-07-23T18:25:45;99873.00;;;21.96
49154;BMP280;49455;52.252;9.124;2022-07-23T18:30:45;99878.22;;;22.00
49154;BMP280;49455;52.252;9.124;2022-07-23T18:35:46;99877.50;;;21.88
49154;BMP280;49455;52.252;9.124;2022-07-23T18:40:47;99880.56;;;21.61
49154;BMP280;49455;52.252;9.124;2022-07-23T18:45:47;99888.72;;;21.41
49154;BMP280;49455;52.252;9.124;2022-07-23T18:50:48;99893.19;;;21.30
49154;BMP280;49455;52.252;9.124;2022-07-23T18:55:48;99894.09;;;21.27
49154;BMP280;49455;52.252;9.124;2022-07-23T19:00:49;99898.38;;;21.39
49154;BMP280;49455;52.252;9.124;2022-07-23T19:05:49;99900.44;;;21.13
49154;BMP280;49455;52.252;9.124;2022-07-23T19:10:50;99904.88;;;21.05
49154;BMP280;49455;52.252;9.124;2022-07-23T19:15:51;99911.22;;;20.85
49154;BMP280;49455;52.252;9.124;2022-07-23T19:20:51;99902.66;;;20.70
49154;BMP280;49455;52.252;9.124;2022-07-23T19:25:52;99918.59;;;20.46
49154;BMP280;49455;52.252;9.124;2022-07-23T19:30:53;99917.75;;;20.41
49154;BMP280;49455;52.252;9.124;2022-07-23T19:35:53;99936.19;;;20.34
49154;BMP280;49455;52.252;9.124;2022-07-23T19:40:53;99938.88;;;20.27
49154;BMP280;49455;52.252;9.124;2022-07-23T19:45:54;99946.06;;;19.98
49154;BMP280;49455;52.252;9.124;2022-07-23T19:50:55;99956.69;;;19.77
49154;BMP280;49455;52.252;9.124;2022-07-23T19:55:55;99964.59;;;19.61
49154;BMP280;49455;52.252;9.124;2022-07-23T20:00:56;99960.31;;;19.31
49154;BMP280;49455;52.252;9.124;2022-07-23T20:05:56;99969.13;;;19.13
49154;BMP280;49455;52.252;9.124;2022-07-23T20:10:57;99967.41;;;18.95
49154;BMP280;49455;52.252;9.124;2022-07-23T20:15:57;99965.69;;;18.97
49154;BMP280;49455;52.252;9.124;2022-07-23T20:20:57;99977.00;;;18.88
49154;BMP280;49455;52.252;9.124;2022-07-23T20:25:58;99980.53;;;18.74
49154;BMP280;49455;52.252;9.124;2022-07-23T20:30:59;99977.88;;;18.59
49154;BMP280;49455;52.252;9.124;2022-07-23T20:35:59;99977.00;;;18.54
49154;BMP280;49455;52.252;9.124;2022-07-23T20:41:00;99977.91;;;18.42
49154;BMP280;49455;52.252;9.124;2022-07-23T20:46:00;99978.75;;;18.26
49154;BMP280;49455;52.252;9.124;2022-07-23T20:51:01;99982.13;;;17.95
49154;BMP280;49455;52.252;9.124;2022-07-23T20:56:02;99990.88;;;17.96
49154;BMP280;49455;52.252;9.124;2022-07-23T21:01:03;99992.56;;;17.86
49154;BMP280;49455;52.252;9.124;2022-07-23T21:06:04;99985.53;;;17.66
49154;BMP280;49455;52.252;9.124;2022-07-23T21:11:04;100000.34;;;17.66
49154;BMP280;49455;52.252;9.124;2022-07-23T21:16:05;99984.66;;;17.61
49154;BMP280;49455;52.252;9.124;2022-07-23T21:21:06;99987.16;;;17.36
49154;BMP280;49455;52.252;9.124;2022-07-23T21:26:06;99982.78;;;17.38
49154;BMP280;49455;52.252;9.124;2022-07-23T21:31:07;99992.34;;;17.35
49154;BMP280;49455;52.252;9.124;2022-07-23T21:36:08;99991.53;;;17.43
49154;BMP280;49455;52.252;9.124;2022-07-23T21:41:12;99998.34;;;17.19
49154;BMP280;49455;52.252;9.124;2022-07-23T21:46:12;99994.75;;;17.02
49154;BMP280;49455;52.252;9.124;2022-07-23T21:51:12;99996.50;;;17.05
49154;BMP280;49455;52.252;9.124;2022-07-23T21:56:13;99998.13;;;16.85
49154;BMP280;49455;52.252;9.124;2022-07-23T22:01:14;99999.78;;;16.74
49154;BMP280;49455;52.252;9.124;2022-07-23T22:06:14;100007.56;;;16.68
49154;BMP280;49455;52.252;9.124;2022-07-23T22:11:15;100006.59;;;16.62
49154;BMP280;49455;52.252;9.124;2022-07-23T22:16:15;100014.44;;;16.62
49154;BMP280;49455;52.252;9.124;2022-07-23T22:21:16;100011.88;;;16.66
49154;BMP280;49455;52.252;9.124;2022-07-23T22:26:16;100010.06;;;16.58
49154;BMP280;49455;52.252;9.124;2022-07-23T22:31:20;100009.22;;;16.58
49154;BMP280;49455;52.252;9.124;2022-07-23T22:36:20;100006.59;;;16.58
49154;BMP280;49455;52.252;9.124;2022-07-23T22:41:21;100005.81;;;16.69
49154;BMP280;49455;52.252;9.124;2022-07-23T22:46:22;100003.19;;;16.70
49154;BMP280;49455;52.252;9.124;2022-07-23T22:51:22;99993.81;;;16.94
49154;BMP280;49455;52.252;9.124;2022-07-23T22:56:23;99993.81;;;16.97
49154;BMP280;49455;52.252;9.124;2022-07-23T23:01:24;99999.88;;;16.91
49154;BMP280;49455;52.252;9.124;2022-07-23T23:06:24;99995.59;;;17.00
49154;BMP280;49455;52.252;9.124;2022-07-23T23:11:25;99990.41;;;17.04
49154;BMP280;49455;52.252;9.124;2022-07-23T23:16:25;99996.56;;;17.11
49154;BMP280;49455;52.252;9.124;2022-07-23T23:21:25;100004.41;;;17.12
49154;BMP280;49455;52.252;9.124;2022-07-23T23:26:26;99999.94;;;16.98
49154;BMP280;49455;52.252;9.124;2022-07-23T23:31:26;99993.81;;;16.90
49154;BMP280;49455;52.252;9.124;2022-07-23T23:36:27;99982.53;;;17.00
49154;BMP280;49455;52.252;9.124;2022-07-23T23:41:27;99982.63;;;17.09
49154;BMP280;49455;52.252;9.124;2022-07-23T23:46:28;99986.91;;;17.02
49154;BMP280;49455;52.252;9.124;2022-07-23T23:51:28;99986.03;;;17.02
49154;BMP280;49455;52.252;9.124;2022-07-23T23:56:29;99981.63;;;16.94
